sensor_id;sensor_type;location;lat;lon;timestamp;temperature;humidity
20492;DHT22;10404;51.468;6.762;2023-05-10T00:02:24;15.80;68.40
20492;DHT22;10404;51.468;6.762;2023-05-10T00:04:50;15.80;68.50
20492;DHT22;10404;51.468;6.762;2023-05-10T00:07:15;15.80;68.60
20492;DHT22;10404;51.468;6.762;2023-05-10T00:09:43;15.80;68.50
20492;DHT22;10404;51.468;6.762;2023-05-10T00:12:09;15.80;68.70
20492;DHT22;10404;51.468;6.762;2023-05-10T00:14:34;15.70;68.70
20492;DHT22;10404;51.468;6.762;2023-05-10T00:17:00;15.80;68.90
20492;DHT22;10404;51.468;6.762;2023-05-10T00:19:26;15.70;68.90
20492;DHT22;10404;51.468;6.762;2023-05-10T00:21:51;15.70;68.90
20492;DHT22;10404;51.468;6.762;2023-05-10T00:24:17;15.60;68.90
20492;DHT22;10404;51.468;6.762;2023-05-10T00:26:42;15.60;69.00
20492;DHT22;10404;51.468;6.762;2023-05-10T00:29:08;15.60;69.00
20492;DHT22;10404;51.468;6.762;2023-05-10T00:31:34;15.60;69.10
20492;DHT22;10404;51.468;6.762;2023-05-10T00:33:59;15.60;69.00
20492;DHT22;10404;51.468;6.762;2023-05-10T00:36:25;15.60;69.00
20492;DHT22;10404;51.468;6.762;2023-05-10T00:38:51;15.60;69.10
20492;DHT22;10404;51.468;6.762;2023-05-10T00:41:16;15.60;69.10
20492;DHT22;10404;51.468;6.762;2023-05-10T00:43:42;15.50;69.10
20492;DHT22;10404;51.468;6.762;2023-05-10T00:46:08;15.50;69.10
20492;DHT22;10404;51.468;6.762;2023-05-10T00:48:33;15.50;69.20
20492;DHT22;10404;51.468;6.762;2023-05-10T00:51:01;15.50;69.20
20492;DHT22;10404;51.468;6.762;2023-05-10T00:53:27;15.50;69.20
20492;DHT22;10404;51.468;6.762;2023-05-10T00:55:52;15.40;69.20
20492;DHT22;10404;51.468;6.762;2023-05-10T00:58:18;15.40;69.30
20492;DHT22;10404;51.468;6.762;2023-05-10T01:00:46;15.40;69.30
20492;DHT22;10404;51.468;6.762;2023-05-10T01:03:12;15.40;69.30
20492;DHT22;10404;51.468;6.762;2023-05-10T01:05:38;15.40;69.30
20492;DHT22;10404;51.468;6.762;2023-05-10T01:08:04;15.40;69.30
20492;DHT22;10404;51.468;6.762;2023-05-10T01:10:30;15.40;69.30
20492;DHT22;10404;51.468;6.762;2023-05-10T01:12:56;15.40;69.40
20492;DHT22;10404;51.468;6.762;2023-05-10T01:15:22;15.30;69.50
20492;DHT22;10404;51.468;6.762;2023-05-10T01:17:48;15.30;69.50
20492;DHT22;10404;51.468;6.762;2023-05-10T01:20:15;15.30;69.50
20492;DHT22;10404;51.468;6.762;2023-05-10T01:32:07;15.20;69.70
20492;DHT22;10404;51.468;6.762;2023-05-10T01:34:46;15.20;69.80
20492;DHT22;10404;51.468;6.762;2023-05-10T01:37:19;15.20;69.80
20492;DHT22;10404;51.468;6.762;2023-05-10T01:40:08;15.10;69.70
20492;DHT22;10404;51.468;6.762;2023-05-10T01:42:48;15.10;69.80
20492;DHT22;10404;51.468;6.762;2023-05-10T01:45:29;15.10;69.90
20492;DHT22;10404;51.468;6.762;2023-05-10T01:50:32;15.00;69.80
20492;DHT22;10404;51.468;6.762;2023-05-10T01:53:00;15.00;69.70
20492;DHT22;10404;51.468;6.762;2023-05-10T01:55:30;15.00;69.80
20492;DHT22;10404;51.468;6.762;2023-05-10T01:58:04;15.00;69.80
20492;DHT22;10404;51.468;6.762;2023-05-10T02:00:31;15.00;69.80
20492;DHT22;10404;51.468;6.762;2023-05-10T02:02:57;15.00;69.80
20492;DHT22;10404;51.468;6.762;2023-05-10T02:05:25;15.00;69.80
20492;DHT22;10404;51.468;6.762;2023-05-10T02:07:52;15.00;69.90
20492;DHT22;10404;51.468;6.762;2023-05-10T02:10:18;15.00;69.90
20492;DHT22;10404;51.468;6.762;2023-05-10T02:12:47;15.00;70.00
20492;DHT22;10404;51.468;6.762;2023-05-10T02:15:18;14.90;70.00
20492;DHT22;10404;51.468;6.762;2023-05-10T02:17:47;14.90;70.00
20492;DHT22;10404;51.468;6.762;2023-05-10T02:20:13;14.90;69.90
20492;DHT22;10404;51.468;6.762;2023-05-10T02:22:40;14.90;69.90
20492;DHT22;10404;51.468;6.762;2023-05-10T02:25:08;14.90;69.90
20492;DHT22;10404;51.468;6.762;2023-05-10T02:27:36;14.90;70.00
20492;DHT22;10404;51.468;6.762;2023-05-10T02:30:02;14.80;69.90
20492;DHT22;10404;51.468;6.762;2023-05-10T02:32:29;14.80;69.90
20492;DHT22;10404;51.468;6.762;2023-05-10T02:34:55;14.80;70.00
20492;DHT22;10404;51.468;6.762;2023-05-10T02:37:22;14.80;70.10
20492;DHT22;10404;51.468;6.762;2023-05-10T02:39:53;14.80;70.00
20492;DHT22;10404;51.468;6.762;2023-05-10T02:42:23;14.80;70.00
20492;DHT22;10404;51.468;6.762;2023-05-10T02:44:52;14.70;70.00
20492;DHT22;10404;51.468;6.762;2023-05-10T02:47:18;14.70;70.00
20492;DHT22;10404;51.468;6.762;2023-05-10T02:49:44;14.70;70.00
20492;DHT22;10404;51.468;6.762;2023-05-10T02:52:10;14.70;69.90
20492;DHT22;10404;51.468;6.762;2023-05-10T02:54:46;14.70;69.80
20492;DHT22;10404;51.468;6.762;2023-05-10T02:57:16;14.70;69.90
20492;DHT22;10404;51.468;6.762;2023-05-10T02:59:44;14.70;70.00
20492;DHT22;10404;51.468;6.762;2023-05-10T03:02:12;14.60;70.00
20492;DHT22;10404;51.468;6.762;2023-05-10T03:04:37;14.60;70.10
20492;DHT22;10404;51.468;6.762;2023-05-10T03:07:03;14.60;70.00
20492;DHT22;10404;51.468;6.762;2023-05-10T03:09:29;14.60;70.00
20492;DHT22;10404;51.468;6.762;2023-05-10T03:12:07;14.60;70.00
20492;DHT22;10404;51.468;6.762;2023-05-10T03:20:16;14.50;70.10
20492;DHT22;10404;51.468;6.762;2023-05-10T03:22:47;14.50;70.10
20492;DHT22;10404;51.468;6.762;2023-05-10T03:25:16;14.50;70.10
20492;DHT22;10404;51.468;6.762;2023-05-10T03:27:44;14.50;70.10
20492;DHT22;10404;51.468;6.762;2023-05-10T03:30:12;14.50;70.10
20492;DHT22;10404;51.468;6.762;2023-05-10T03:32:38;14.50;70.20
20492;DHT22;10404;51.468;6.762;2023-05-10T03:35:08;14.40;70.20
20492;DHT22;10404;51.468;6.762;2023-05-10T03:37:34;14.50;70.30
20492;DHT22;10404;51.468;6.762;2023-05-10T03:40:00;14.40;70.30
20492;DHT22;10404;51.468;6.762;2023-05-10T03:42:25;14.40;70.30
20492;DHT22;10404;51.468;6.762;2023-05-10T03:44:51;14.40;70.30
20492;DHT22;10404;51.468;6.762;2023-05-10T03:47:17;14.40;70.30
20492;DHT22;10404;51.468;6.762;2023-05-10T03:49:42;14.40;70.30
20492;DHT22;10404;51.468;6.762;2023-05-10T03:52:08;14.30;70.40
20492;DHT22;10404;51.468;6.762;2023-05-10T03:54:33;14.30;70.40
20492;DHT22;10404;51.468;6.762;2023-05-10T03:56:59;14.30;70.40
20492;DHT22;10404;51.468;6.762;2023-05-10T03:59:26;14.30;70.50
20492;DHT22;10404;51.468;6.762;2023-05-10T04:01:51;14.30;70.50
20492;DHT22;10404;51.468;6.762;2023-05-10T04:04:17;14.30;70.50
20492;DHT22;10404;51.468;6.762;2023-05-10T04:06:44;14.30;70.60
20492;DHT22;10404;51.468;6.762;2023-05-10T04:09:10;14.30;70.70
20492;DHT22;10404;51.468;6.762;2023-05-10T04:11:36;14.30;70.70
20492;DHT22;10404;51.468;6.762;2023-05-10T04:14:01;14.30;70.70
20492;DHT22;10404;51.468;6.762;2023-05-10T04:16:27;14.20;70.70
20492;DHT22;10404;51.468;6.762;2023-05-10T04:18:52;14.20;70.90
20492;DHT22;10404;51.468;6.762;2023-05-10T04:21:18;14.20;70.90
20492;DHT22;10404;51.468;6.762;2023-05-10T04:23:44;14.20;71.00
20492;DHT22;10404;51.468;6.762;2023-05-10T04:26:09;14.20;71.00
20492;DHT22;10404;51.468;6.762;2023-05-10T04:28:35;14.20;71.00
20492;DHT22;10404;51.468;6.762;2023-05-10T04:31:05;14.20;71.00
20492;DHT22;10404;51.468;6.762;2023-05-10T04:33:31;14.20;71.00
20492;DHT22;10404;51.468;6.762;2023-05-10T04:35:57;14.20;71.10
20492;DHT22;10404;51.468;6.762;2023-05-10T04:38:23;14.20;71.20
20492;DHT22;10404;51.468;6.762;2023-05-10T04:40:48;14.10;71.20
20492;DHT22;10404;51.468;6.762;2023-05-10T04:43:14;14.10;71.30
20492;DHT22;10404;51.468;6.762;2023-05-10T04:45:39;14.10;71.40
20492;DHT22;10404;51.468;6.762;2023-05-10T04:48:05;14.10;71.40
20492;DHT22;10404;51.468;6.762;2023-05-10T04:50:31;14.10;71.50
20492;DHT22;10404;51.468;6.762;2023-05-10T04:52:57;14.10;71.50
20492;DHT22;10404;51.468;6.762;2023-05-10T04:55:22;14.10;71.60
20492;DHT22;10404;51.468;6.762;2023-05-10T04:57:48;14.10;71.70
20492;DHT22;10404;51.468;6.762;2023-05-10T05:00:14;14.10;71.70
20492;DHT22;10404;51.468;6.762;2023-05-10T05:02:43;14.10;71.80
20492;DHT22;10404;51.468;6.762;2023-05-10T05:05:09;14.10;71.90
20492;DHT22;10404;51.468;6.762;2023-05-10T05:07:35;14.10;71.80
20492;DHT22;10404;51.468;6.762;2023-05-10T05:10:00;14.10;71.80
20492;DHT22;10404;51.468;6.762;2023-05-10T05:12:26;14.10;71.90
20492;DHT22;10404;51.468;6.762;2023-05-10T05:14:52;14.10;71.80
20492;DHT22;10404;51.468;6.762;2023-05-10T05:17:17;14.10;71.90
20492;DHT22;10404;51.468;6.762;2023-05-10T05:19:43;14.10;72.00
20492;DHT22;10404;51.468;6.762;2023-05-10T05:22:08;14.00;71.90
20492;DHT22;10404;51.468;6.762;2023-05-10T05:24:37;14.00;72.10
20492;DHT22;10404;51.468;6.762;2023-05-10T05:27:03;14.00;72.20
20492;DHT22;10404;51.468;6.762;2023-05-10T05:29:29;14.00;72.20
20492;DHT22;10404;51.468;6.762;2023-05-10T05:31:55;14.00;72.20
20492;DHT22;10404;51.468;6.762;2023-05-10T05:34:20;14.00;72.30
20492;DHT22;10404;51.468;6.762;2023-05-10T05:36:47;14.00;72.30
20492;DHT22;10404;51.468;6.762;2023-05-10T05:39:12;14.00;72.30
20492;DHT22;10404;51.468;6.762;2023-05-10T05:41:38;14.00;72.30
20492;DHT22;10404;51.468;6.762;2023-05-10T05:44:03;14.00;72.30
20492;DHT22;10404;51.468;6.762;2023-05-10T05:46:29;14.10;72.30
20492;DHT22;10404;51.468;6.762;2023-05-10T05:48:55;14.00;72.30
20492;DHT22;10404;51.468;6.762;2023-05-10T05:51:20;14.00;72.40
20492;DHT22;10404;51.468;6.762;2023-05-10T05:53:46;14.00;72.50
20492;DHT22;10404;51.468;6.762;2023-05-10T05:56:11;14.00;72.50
20492;DHT22;10404;51.468;6.762;2023-05-10T05:58:37;14.00;72.60
20492;DHT22;10404;51.468;6.762;2023-05-10T06:01:02;14.00;72.50
20492;DHT22;10404;51.468;6.762;2023-05-10T06:03:28;14.10;72.50
20492;DHT22;10404;51.468;6.762;2023-05-10T06:05:54;14.10;72.60
20492;DHT22;10404;51.468;6.762;2023-05-10T06:08:19;14.10;72.60
20492;DHT22;10404;51.468;6.762;2023-05-10T06:10:45;14.10;72.70
20492;DHT22;10404;51.468;6.762;2023-05-10T06:13:11;14.10;72.70
20492;DHT22;10404;51.468;6.762;2023-05-10T06:15:37;14.00;72.70
20492;DHT22;10404;51.468;6.762;2023-05-10T06:18:02;14.10;72.70
20492;DHT22;10404;51.468;6.762;2023-05-10T06:20:28;14.10;72.80
20492;DHT22;10404;51.468;6.762;2023-05-10T06:22:54;14.10;72.80
20492;DHT22;10404;51.468;6.762;2023-05-10T06:25:20;14.10;72.70
20492;DHT22;10404;51.468;6.762;2023-05-10T06:27:46;14.10;72.70
20492;DHT22;10404;51.468;6.762;2023-05-10T06:30:12;14.10;72.70
20492;DHT22;10404;51.468;6.762;2023-05-10T06:32:39;14.10;72.80
20492;DHT22;10404;51.468;6.762;2023-05-10T06:35:05;14.10;72.80
20492;DHT22;10404;51.468;6.762;2023-05-10T06:37:30;14.10;72.80
20492;DHT22;10404;51.468;6.762;2023-05-10T06:39:56;14.10;72.80
20492;DHT22;10404;51.468;6.762;2023-05-10T06:42:22;14.10;72.70
20492;DHT22;10404;51.468;6.762;2023-05-10T06:44:47;14.10;72.70
20492;DHT22;10404;51.468;6.762;2023-05-10T06:47:13;14.10;72.70
20492;DHT22;10404;51.468;6.762;2023-05-10T06:49:39;14.10;72.70
20492;DHT22;10404;51.468;6.762;2023-05-10T06:52:04;14.10;72.80
20492;DHT22;10404;51.468;6.762;2023-05-10T06:54:30;14.10;72.70
20492;DHT22;10404;51.468;6.762;2023-05-10T06:56:56;14.10;72.70
20492;DHT22;10404;51.468;6.762;2023-05-10T06:59:21;14.10;72.60
20492;DHT22;10404;51.468;6.762;2023-05-10T07:01:47;14.10;72.50
20492;DHT22;10404;51.468;6.762;2023-05-10T07:04:13;14.10;72.50
20492;DHT22;10404;51.468;6.762;2023-05-10T07:06:38;14.10;72.50
20492;DHT22;10404;51.468;6.762;2023-05-10T07:09:04;14.20;72.50
20492;DHT22;10404;51.468;6.762;2023-05-10T07:11:30;14.10;72.50
20492;DHT22;10404;51.468;6.762;2023-05-10T07:13:55;14.10;72.50
20492;DHT22;10404;51.468;6.762;2023-05-10T07:16:21;14.10;72.50
20492;DHT22;10404;51.468;6.762;2023-05-10T07:18:46;14.20;72.50
20492;DHT22;10404;51.468;6.762;2023-05-10T07:21:12;14.20;72.50
20492;DHT22;10404;51.468;6.762;2023-05-10T07:23:38;14.10;72.50
20492;DHT22;10404;51.468;6.762;2023-05-10T07:26:03;14.20;72.50
20492;DHT22;10404;51.468;6.762;2023-05-10T07:28:29;14.20;72.70
20492;DHT22;10404;51.468;6.762;2023-05-10T07:30:54;14.20;72.70
20492;DHT22;10404;51.468;6.762;2023-05-10T07:33:20;14.20;72.70
20492;DHT22;10404;51.468;6.762;2023-05-10T07:35:46;14.20;72.70
20492;DHT22;10404;51.468;6.762;2023-05-10T07:38:11;14.20;72.70
20492;DHT22;10404;51.468;6.762;2023-05-10T07:40:39;14.20;72.70
20492;DHT22;10404;51.468;6.762;2023-05-10T07:43:05;14.20;72.80
20492;DHT22;10404;51.468;6.762;2023-05-10T07:45:30;14.20;72.90
20492;DHT22;10404;51.468;6.762;2023-05-10T07:47:56;14.20;72.90
20492;DHT22;10404;51.468;6.762;2023-05-10T07:50:21;14.20;72.90
20492;DHT22;10404;51.468;6.762;2023-05-10T07:52:47;14.30;73.00
20492;DHT22;10404;51.468;6.762;2023-05-10T07:55:13;14.30;73.10
20492;DHT22;10404;51.468;6.762;2023-05-10T07:57:39;14.30;73.00
20492;DHT22;10404;51.468;6.762;2023-05-10T08:00:06;14.30;73.00
20492;DHT22;10404;51.468;6.762;2023-05-10T08:02:34;14.30;73.00
20492;DHT22;10404;51.468;6.762;2023-05-10T08:05:00;14.30;73.10
20492;DHT22;10404;51.468;6.762;2023-05-10T08:07:26;14.40;73.10
20492;DHT22;10404;51.468;6.762;2023-05-10T08:09:51;14.40;73.00
20492;DHT22;10404;51.468;6.762;2023-05-10T08:12:17;14.40;73.20
20492;DHT22;10404;51.468;6.762;2023-05-10T08:14:42;14.40;73.40
20492;DHT22;10404;51.468;6.762;2023-05-10T08:17:08;14.40;73.60
20492;DHT22;10404;51.468;6.762;2023-05-10T08:19:33;14.50;73.70
20492;DHT22;10404;51.468;6.762;2023-05-10T08:21:59;14.50;73.80
20492;DHT22;10404;51.468;6.762;2023-05-10T08:24:25;14.50;73.80
20492;DHT22;10404;51.468;6.762;2023-05-10T08:26:50;14.50;73.90
20492;DHT22;10404;51.468;6.762;2023-05-10T08:29:16;14.60;74.00
20492;DHT22;10404;51.468;6.762;2023-05-10T08:31:42;14.60;74.00
20492;DHT22;10404;51.468;6.762;2023-05-10T08:34:07;14.60;74.10
20492;DHT22;10404;51.468;6.762;2023-05-10T08:36:33;14.70;74.20
20492;DHT22;10404;51.468;6.762;2023-05-10T08:38:58;14.70;74.20
20492;DHT22;10404;51.468;6.762;2023-05-10T08:41:24;14.70;74.20
20492;DHT22;10404;51.468;6.762;2023-05-10T08:43:54;14.80;74.30
20492;DHT22;10404;51.468;6.762;2023-05-10T08:46:21;14.80;74.30
20492;DHT22;10404;51.468;6.762;2023-05-10T08:48:48;14.90;74.10
20492;DHT22;10404;51.468;6.762;2023-05-10T08:51:19;15.00;74.10
20492;DHT22;10404;51.468;6.762;2023-05-10T08:53:45;15.10;73.90
20492;DHT22;10404;51.468;6.762;2023-05-10T08:56:11;15.20;73.70
20492;DHT22;10404;51.468;6.762;2023-05-10T08:58:38;15.30;73.60
20492;DHT22;10404;51.468;6.762;2023-05-10T09:01:04;15.40;73.50
20492;DHT22;10404;51.468;6.762;2023-05-10T09:03:31;15.50;73.40
20492;DHT22;10404;51.468;6.762;2023-05-10T09:05:57;15.50;73.40
20492;DHT22;10404;51.468;6.762;2023-05-10T09:08:26;15.60;73.30
20492;DHT22;10404;51.468;6.762;2023-05-10T09:10:53;15.60;73.20
20492;DHT22;10404;51.468;6.762;2023-05-10T09:13:19;15.60;73.20
20492;DHT22;10404;51.468;6.762;2023-05-10T09:15:46;15.60;73.20
20492;DHT22;10404;51.468;6.762;2023-05-10T09:18:12;15.60;73.30
20492;DHT22;10404;51.468;6.762;2023-05-10T09:20:38;15.70;73.30
20492;DHT22;10404;51.468;6.762;2023-05-10T09:23:03;15.70;73.30
20492;DHT22;10404;51.468;6.762;2023-05-10T09:25:29;15.70;73.30
20492;DHT22;10404;51.468;6.762;2023-05-10T09:27:55;15.80;73.30
20492;DHT22;10404;51.468;6.762;2023-05-10T09:30:25;15.80;73.40
20492;DHT22;10404;51.468;6.762;2023-05-10T09:32:51;15.80;73.40
20492;DHT22;10404;51.468;6.762;2023-05-10T09:35:18;15.80;73.30
20492;DHT22;10404;51.468;6.762;2023-05-10T09:37:46;15.80;73.20
20492;DHT22;10404;51.468;6.762;2023-05-10T09:40:20;15.80;73.20
20492;DHT22;10404;51.468;6.762;2023-05-10T09:45:28;15.80;73.20
20492;DHT22;10404;51.468;6.762;2023-05-10T09:47:54;15.90;73.20
20492;DHT22;10404;51.468;6.762;2023-05-10T09:50:21;16.00;73.10
20492;DHT22;10404;51.468;6.762;2023-05-10T09:52:50;16.00;73.10
20492;DHT22;10404;51.468;6.762;2023-05-10T09:55:18;16.00;73.00
20492;DHT22;10404;51.468;6.762;2023-05-10T09:57:46;16.00;73.00
20492;DHT22;10404;51.468;6.762;2023-05-10T10:00:17;16.00;72.90
20492;DHT22;10404;51.468;6.762;2023-05-10T10:02:44;16.00;72.70
20492;DHT22;10404;51.468;6.762;2023-05-10T10:05:11;16.10;72.60
20492;DHT22;10404;51.468;6.762;2023-05-10T10:07:37;16.10;72.50
20492;DHT22;10404;51.468;6.762;2023-05-10T10:10:03;16.10;72.40
20492;DHT22;10404;51.468;6.762;2023-05-10T10:12:30;16.10;72.30
20492;DHT22;10404;51.468;6.762;2023-05-10T10:14:56;16.10;72.30
20492;DHT22;10404;51.468;6.762;2023-05-10T10:17:24;16.10;72.20
20492;DHT22;10404;51.468;6.762;2023-05-10T10:19:52;16.10;72.20
20492;DHT22;10404;51.468;6.762;2023-05-10T10:22:18;16.10;72.20
20492;DHT22;10404;51.468;6.762;2023-05-10T10:24:44;16.20;72.10
20492;DHT22;10404;51.468;6.762;2023-05-10T10:27:36;16.10;72.00
20492;DHT22;10404;51.468;6.762;2023-05-10T10:30:13;16.20;72.00
20492;DHT22;10404;51.468;6.762;2023-05-10T10:32:59;16.20;72.00
20492;DHT22;10404;51.468;6.762;2023-05-10T10:35:29;16.20;71.90
20492;DHT22;10404;51.468;6.762;2023-05-10T10:37:56;16.20;71.90
20492;DHT22;10404;51.468;6.762;2023-05-10T10:42:49;16.20;71.80
20492;DHT22;10404;51.468;6.762;2023-05-10T10:45:15;16.20;71.80
20492;DHT22;10404;51.468;6.762;2023-05-10T10:47:41;16.20;71.60
20492;DHT22;10404;51.468;6.762;2023-05-10T10:50:08;16.20;71.70
20492;DHT22;10404;51.468;6.762;2023-05-10T10:55:10;16.20;71.60
20492;DHT22;10404;51.468;6.762;2023-05-10T10:58:03;16.20;71.60
20492;DHT22;10404;51.468;6.762;2023-05-10T11:00:31;16.30;71.60
20492;DHT22;10404;51.468;6.762;2023-05-10T11:02:59;16.30;71.60
20492;DHT22;10404;51.468;6.762;2023-05-10T11:05:50;16.30;71.70
20492;DHT22;10404;51.468;6.762;2023-05-10T11:08:31;16.30;71.70
20492;DHT22;10404;51.468;6.762;2023-05-10T11:13:33;16.30;71.70
20492;DHT22;10404;51.468;6.762;2023-05-10T11:16:10;16.20;71.60
20492;DHT22;10404;51.468;6.762;2023-05-10T11:18:36;16.30;71.70
20492;DHT22;10404;51.468;6.762;2023-05-10T11:21:02;16.30;71.60
20492;DHT22;10404;51.468;6.762;2023-05-10T11:23:49;16.30;71.60
20492;DHT22;10404;51.468;6.762;2023-05-10T11:26:14;16.30;71.50
20492;DHT22;10404;51.468;6.762;2023-05-10T11:28:48;16.30;71.50
20492;DHT22;10404;51.468;6.762;2023-05-10T11:31:17;16.40;71.50
20492;DHT22;10404;51.468;6.762;2023-05-10T11:36:52;16.40;71.50
20492;DHT22;10404;51.468;6.762;2023-05-10T11:39:19;16.40;71.40
20492;DHT22;10404;51.468;6.762;2023-05-10T11:41:48;16.50;71.30
20492;DHT22;10404;51.468;6.762;2023-05-10T11:44:14;16.50;71.30
20492;DHT22;10404;51.468;6.762;2023-05-10T11:46:40;16.60;71.20
20492;DHT22;10404;51.468;6.762;2023-05-10T11:49:07;16.60;71.10
20492;DHT22;10404;51.468;6.762;2023-05-10T11:51:36;16.60;71.00
20492;DHT22;10404;51.468;6.762;2023-05-10T11:54:06;16.70;71.00
20492;DHT22;10404;51.468;6.762;2023-05-10T11:56:33;16.80;70.90
20492;DHT22;10404;51.468;6.762;2023-05-10T11:59:00;16.80;70.80
20492;DHT22;10404;51.468;6.762;2023-05-10T12:01:27;16.80;70.80
20492;DHT22;10404;51.468;6.762;2023-05-10T12:03:54;16.90;70.60
20492;DHT22;10404;51.468;6.762;2023-05-10T12:06:21;16.90;70.50
20492;DHT22;10404;51.468;6.762;2023-05-10T12:08:48;16.90;70.60
20492;DHT22;10404;51.468;6.762;2023-05-10T12:11:17;17.00;70.50
20492;DHT22;10404;51.468;6.762;2023-05-10T12:13:44;17.00;70.50
20492;DHT22;10404;51.468;6.762;2023-05-10T12:16:20;17.00;70.40
20492;DHT22;10404;51.468;6.762;2023-05-10T12:18:56;17.00;70.40
20492;DHT22;10404;51.468;6.762;2023-05-10T12:21:22;17.00;70.30
20492;DHT22;10404;51.468;6.762;2023-05-10T12:23:53;17.00;70.30
20492;DHT22;10404;51.468;6.762;2023-05-10T12:26:22;17.00;70.20
20492;DHT22;10404;51.468;6.762;2023-05-10T12:28:48;17.00;70.10
20492;DHT22;10404;51.468;6.762;2023-05-10T12:31:13;17.00;70.10
20492;DHT22;10404;51.468;6.762;2023-05-10T12:33:43;17.10;69.90
20492;DHT22;10404;51.468;6.762;2023-05-10T12:36:10;17.10;69.90
20492;DHT22;10404;51.468;6.762;2023-05-10T12:41:05;17.20;69.70
20492;DHT22;10404;51.468;6.762;2023-05-10T12:43:31;17.20;69.70
20492;DHT22;10404;51.468;6.762;2023-05-10T12:45:57;17.20;69.60
20492;DHT22;10404;51.468;6.762;2023-05-10T12:48:23;17.30;69.60
20492;DHT22;10404;51.468;6.762;2023-05-10T12:50:48;17.40;69.50
20492;DHT22;10404;51.468;6.762;2023-05-10T12:53:15;17.50;69.30
20492;DHT22;10404;51.468;6.762;2023-05-10T12:55:41;17.50;69.20
20492;DHT22;10404;51.468;6.762;2023-05-10T12:58:07;17.60;69.10
20492;DHT22;10404;51.468;6.762;2023-05-10T13:00:33;17.60;69.10
20492;DHT22;10404;51.468;6.762;2023-05-10T13:02:58;17.80;69.00
20492;DHT22;10404;51.468;6.762;2023-05-10T13:05:24;17.80;69.00
20492;DHT22;10404;51.468;6.762;2023-05-10T13:07:50;17.90;68.80
20492;DHT22;10404;51.468;6.762;2023-05-10T13:10:16;18.00;68.70
20492;DHT22;10404;51.468;6.762;2023-05-10T13:12:41;18.00;68.70
20492;DHT22;10404;51.468;6.762;2023-05-10T13:15:07;18.10;68.60
20492;DHT22;10404;51.468;6.762;2023-05-10T13:17:33;18.10;68.60
20492;DHT22;10404;51.468;6.762;2023-05-10T13:19:58;18.20;68.50
20492;DHT22;10404;51.468;6.762;2023-05-10T13:22:24;18.30;68.50
20492;DHT22;10404;51.468;6.762;2023-05-10T13:24:50;18.40;68.40
20492;DHT22;10404;51.468;6.762;2023-05-10T13:27:15;18.40;68.30
20492;DHT22;10404;51.468;6.762;2023-05-10T13:29:41;18.50;68.20
20492;DHT22;10404;51.468;6.762;2023-05-10T13:32:07;18.60;68.10
20492;DHT22;10404;51.468;6.762;2023-05-10T13:34:32;18.70;68.10
20492;DHT22;10404;51.468;6.762;2023-05-10T13:36:58;18.80;68.00
20492;DHT22;10404;51.468;6.762;2023-05-10T13:39:23;18.80;67.80
20492;DHT22;10404;51.468;6.762;2023-05-10T13:41:49;18.90;67.90
20492;DHT22;10404;51.468;6.762;2023-05-10T13:44:14;18.90;67.80
20492;DHT22;10404;51.468;6.762;2023-05-10T13:46:41;19.00;67.60
20492;DHT22;10404;51.468;6.762;2023-05-10T13:49:08;19.00;67.80
20492;DHT22;10404;51.468;6.762;2023-05-10T13:51:34;19.10;67.60
20492;DHT22;10404;51.468;6.762;2023-05-10T13:54:01;19.20;67.50
20492;DHT22;10404;51.468;6.762;2023-05-10T13:56:27;19.30;67.20
20492;DHT22;10404;51.468;6.762;2023-05-10T13:58:52;19.30;67.10
20492;DHT22;10404;51.468;6.762;2023-05-10T14:01:18;19.40;66.70
20492;DHT22;10404;51.468;6.762;2023-05-10T14:03:44;19.40;66.70
20492;DHT22;10404;51.468;6.762;2023-05-10T14:06:10;19.50;66.50
20492;DHT22;10404;51.468;6.762;2023-05-10T14:08:38;19.60;66.30
20492;DHT22;10404;51.468;6.762;2023-05-10T14:11:05;19.70;66.00
20492;DHT22;10404;51.468;6.762;2023-05-10T14:13:30;19.80;66.00
20492;DHT22;10404;51.468;6.762;2023-05-10T14:15:56;19.90;65.90
20492;DHT22;10404;51.468;6.762;2023-05-10T14:18:22;20.00;65.70
20492;DHT22;10404;51.468;6.762;2023-05-10T14:20:47;20.00;65.70
20492;DHT22;10404;51.468;6.762;2023-05-10T14:23:13;20.10;65.50
20492;DHT22;10404;51.468;6.762;2023-05-10T14:25:41;20.20;65.30
20492;DHT22;10404;51.468;6.762;2023-05-10T14:28:07;20.30;65.10
20492;DHT22;10404;51.468;6.762;2023-05-10T14:30:33;20.30;65.20
20492;DHT22;10404;51.468;6.762;2023-05-10T14:33:02;20.40;65.10
20492;DHT22;10404;51.468;6.762;2023-05-10T14:35:28;20.50;65.10
20492;DHT22;10404;51.468;6.762;2023-05-10T14:37:53;20.50;65.10
20492;DHT22;10404;51.468;6.762;2023-05-10T14:40:19;20.60;64.90
20492;DHT22;10404;51.468;6.762;2023-05-10T14:42:46;20.70;64.90
20492;DHT22;10404;51.468;6.762;2023-05-10T14:45:11;20.90;64.80
20492;DHT22;10404;51.468;6.762;2023-05-10T14:47:37;21.00;64.50
20492;DHT22;10404;51.468;6.762;2023-05-10T14:50:03;21.10;64.20
20492;DHT22;10404;51.468;6.762;2023-05-10T14:52:29;21.10;64.00
20492;DHT22;10404;51.468;6.762;2023-05-10T14:54:54;21.20;63.70
20492;DHT22;10404;51.468;6.762;2023-05-10T14:57:20;21.30;63.60
20492;DHT22;10404;51.468;6.762;2023-05-10T14:59:45;21.30;63.60
20492;DHT22;10404;51.468;6.762;2023-05-10T15:02:11;21.40;63.50
20492;DHT22;10404;51.468;6.762;2023-05-10T15:04:37;21.50;63.50
20492;DHT22;10404;51.468;6.762;2023-05-10T15:07:03;21.50;63.40
20492;DHT22;10404;51.468;6.762;2023-05-10T15:09:29;21.50;63.20
20492;DHT22;10404;51.468;6.762;2023-05-10T15:11:55;21.60;63.00
20492;DHT22;10404;51.468;6.762;2023-05-10T15:14:21;21.60;63.00
20492;DHT22;10404;51.468;6.762;2023-05-10T15:16:47;21.70;62.60
20492;DHT22;10404;51.468;6.762;2023-05-10T15:19:12;21.70;62.30
20492;DHT22;10404;51.468;6.762;2023-05-10T15:21:39;21.70;62.00
20492;DHT22;10404;51.468;6.762;2023-05-10T15:24:08;21.80;61.90
20492;DHT22;10404;51.468;6.762;2023-05-10T15:26:34;21.90;61.90
20492;DHT22;10404;51.468;6.762;2023-05-10T15:29:00;21.90;61.90
20492;DHT22;10404;51.468;6.762;2023-05-10T15:31:26;21.90;61.90
20492;DHT22;10404;51.468;6.762;2023-05-10T15:33:57;21.90;61.80
20492;DHT22;10404;51.468;6.762;2023-05-10T15:36:23;21.90;61.60
20492;DHT22;10404;51.468;6.762;2023-05-10T15:38:48;21.90;61.60
20492;DHT22;10404;51.468;6.762;2023-05-10T15:41:14;21.90;61.80
20492;DHT22;10404;51.468;6.762;2023-05-10T15:43:39;21.90;61.80
20492;DHT22;10404;51.468;6.762;2023-05-10T15:46:05;21.90;61.80
20492;DHT22;10404;51.468;6.762;2023-05-10T15:48:31;21.90;61.90
20492;DHT22;10404;51.468;6.762;2023-05-10T15:50:57;21.80;61.90
20492;DHT22;10404;51.468;6.762;2023-05-10T15:53:23;21.80;61.90
20492;DHT22;10404;51.468;6.762;2023-05-10T15:55:48;21.70;61.90
20492;DHT22;10404;51.468;6.762;2023-05-10T15:58:14;21.70;61.80
20492;DHT22;10404;51.468;6.762;2023-05-10T16:00:40;21.70;61.70
20492;DHT22;10404;51.468;6.762;2023-05-10T16:03:05;21.70;61.60